Time;durP1;ratioP1;P1;durP2;ratioP2;P2;SDS_P1;SDS_P2;PMS_P1;PMS_P2;Temp;Humidity;BMP_temperature;BMP_pressure;BME280_temperature;BME280_humidity;BME280_pressure;Samples;Min_cycle;Max_cycle;Signal;HPM_P1;HPM_P2
2022/04/05 00:00:57;;;;;;;25.85;6.35;;;7.30;99.90;;;;;;5088651;28;20040;-68
2022/04/05 00:03:24;;;;;;;38.58;8.55;;;7.40;99.90;;;;;;5088600;28;20125;-68
2022/04/05 00:05:50;;;;;;;37.97;7.95;;;7.40;99.90;;;;;;5071101;28;20040;-68
2022/04/05 00:08:16;;;;;;;42.63;7.50;;;7.40;99.90;;;;;;5078571;28;20108;-69
2022/04/05 00:10:43;;;;;;;37.33;7.57;;;7.40;99.90;;;;;;5107190;28;20412;-68
2022/04/05 00:13:09;;;;;;;43.53;8.40;;;7.40;99.90;;;;;;5108410;28;20386;-68
2022/04/05 00:15:35;;;;;;;34.72;6.78;;;7.40;99.90;;;;;;5105548;28;20074;-68
2022/04/05 00:18:01;;;;;;;28.20;6.88;;;7.40;99.90;;;;;;5080546;28;20050;-68
2022/04/05 00:20:27;;;;;;;43.38;8.07;;;7.30;99.90;;;;;;5107780;28;20047;-68
2022/04/05 00:22:59;;;;;;;35.55;7.63;;;7.40;99.90;;;;;;5078983;28;20394;-68
2022/04/05 00:25:25;;;;;;;34.65;6.78;;;7.30;99.90;;;;;;5099365;28;20048;-68
2022/04/05 00:27:52;;;;;;;36.90;5.93;;;7.30;99.90;;;;;;5092443;28;20054;-68
2022/04/05 00:30:19;;;;;;;36.25;6.63;;;7.30;99.90;;;;;;5095445;28;20135;-68
2022/04/05 00:32:45;;;;;;;38.92;6.80;;;7.30;99.90;;;;;;5103254;28;20555;-68
2022/04/05 00:35:11;;;;;;;41.47;6.78;;;7.30;99.90;;;;;;5097200;28;20082;-69
2022/04/05 00:37:37;;;;;;;37.25;7.82;;;7.30;99.90;;;;;;5087612;28;20047;-68
2022/04/05 00:40:05;;;;;;;43.72;6.15;;;7.30;99.90;;;;;;5099242;28;20043;-69
2022/04/05 00:42:36;;;;;;;47.95;7.78;;;7.30;99.90;;;;;;5088923;28;20520;-68
2022/04/05 00:45:05;;;;;;;53.25;7.35;;;7.30;99.90;;;;;;5110075;27;20051;-68
2022/04/05 00:47:36;;;;;;;41.03;6.90;;;7.30;99.90;;;;;;5089222;28;20044;-68
2022/04/05 00:50:04;;;;;;;37.85;5.80;;;7.30;99.90;;;;;;5097716;28;20048;-69
2022/04/05 00:52:30;;;;;;;43.95;5.82;;;7.30;99.90;;;;;;5090800;28;20052;-69
2022/04/05 00:54:58;;;;;;;37.67;5.40;;;7.20;99.90;;;;;;5092249;28;20051;-69
2022/04/05 00:57:24;;;;;;;24.95;5.03;;;7.20;99.90;;;;;;5087494;28;20612;-68
2022/04/05 00:59:55;;;;;;;29.77;3.65;;;7.10;99.90;;;;;;5070430;28;20119;-68
2022/04/05 01:02:21;;;;;;;32.97;5.50;;;7.00;99.90;;;;;;5099838;28;20042;-69
2022/04/05 01:04:48;;;;;;;30.25;4.75;;;7.00;99.90;;;;;;5098277;28;20501;-69
2022/04/05 01:07:17;;;;;;;22.30;4.82;;;6.90;99.90;;;;;;5086330;28;20136;-69
2022/04/05 01:09:43;;;;;;;24.02;4.45;;;6.80;99.90;;;;;;5070783;28;20459;-69
2022/04/05 01:12:11;;;;;;;27.85;4.43;;;6.80;99.90;;;;;;5087133;28;20044;-69
2022/04/05 01:14:38;;;;;;;27.83;4.53;;;6.80;99.90;;;;;;5081187;28;20593;-69
2022/04/05 01:17:05;;;;;;;21.73;4.25;;;6.80;99.90;;;;;;5087868;28;20157;-70
2022/04/05 01:19:32;;;;;;;24.00;4.57;;;6.80;99.90;;;;;;5089118;28;20043;-69
2022/04/05 01:21:58;;;;;;;23.77;4.75;;;6.70;99.90;;;;;;5107801;28;20508;-68
2022/04/05 01:24:24;;;;;;;22.88;3.63;;;6.70;99.90;;;;;;5106596;28;20047;-69
2022/04/05 01:27:04;;;;;;;27.25;4.20;;;6.70;99.90;;;;;;5107360;28;20566;-69
2022/04/05 01:29:31;;;;;;;30.43;5.03;;;6.70;99.90;;;;;;5105890;28;20124;-69
2022/04/05 01:32:00;;;;;;;22.23;4.60;;;6.70;99.90;;;;;;5106902;28;20047;-69
2022/04/05 01:34:29;;;;;;;19.90;4.25;;;6.70;99.90;;;;;;5107436;28;20048;-69
2022/04/05 01:36:59;;;;;;;33.60;4.43;;;6.60;99.90;;;;;;5082033;28;20420;-69
2022/04/05 01:39:27;;;;;;;23.83;4.13;;;6.60;99.90;;;;;;5087145;28;20078;-68
2022/04/05 01:41:58;;;;;;;31.05;5.18;;;6.60;99.90;;;;;;5086697;28;20101;-69
2022/04/05 01:44:25;;;;;;;28.10;4.50;;;6.50;99.90;;;;;;5070283;28;20048;-69
2022/04/05 01:46:51;;;;;;;31.73;4.55;;;6.50;99.90;;;;;;5069739;28;20372;-69
2022/04/05 01:49:17;;;;;;;34.70;4.55;;;6.40;99.90;;;;;;5053088;28;20557;-68
2022/04/05 01:51:45;;;;;;;26.85;5.60;;;6.40;99.90;;;;;;5069257;28;20044;-69
2022/04/05 01:54:13;;;;;;;24.75;4.15;;;6.40;99.90;;;;;;5085440;28;20039;-69
2022/04/05 01:56:44;;;;;;;28.92;5.70;;;6.40;99.90;;;;;;5086413;28;20056;-69
2022/04/05 01:59:12;;;;;;;39.60;4.35;;;6.40;99.90;;;;;;5086078;28;20078;-68
2022/04/05 02:01:38;;;;;;;30.85;4.30;;;6.40;99.90;;;;;;5093904;28;20481;-69
2022/04/05 02:04:04;;;;;;;27.23;4.03;;;6.40;99.90;;;;;;5088604;28;20047;-69
2022/04/05 02:06:31;;;;;;;25.45;3.72;;;6.40;99.90;;;;;;5106994;28;20047;-68
2022/04/05 02:08:57;;;;;;;26.88;4.40;;;6.40;99.90;;;;;;5104144;28;20073;-69
2022/04/05 02:11:25;;;;;;;31.27;4.72;;;6.40;99.90;;;;;;5105745;28;20055;-69
2022/04/05 02:13:51;;;;;;;26.48;4.20;;;6.30;99.90;;;;;;5073936;28;20044;-69
2022/04/05 02:16:16;;;;;;;20.90;3.45;;;6.40;99.90;;;;;;5067375;28;20086;-68
2022/04/05 02:18:42;;;;;;;27.85;3.58;;;6.30;99.90;;;;;;5081300;28;20040;-69
2022/04/05 02:21:08;;;;;;;23.38;3.08;;;6.30;99.90;;;;;;5048025;28;20560;-68
2022/04/05 02:23:33;;;;;;;33.28;4.68;;;6.30;99.90;;;;;;5066105;28;20076;-68
2022/04/05 02:26:00;;;;;;;25.63;4.00;;;6.30;99.90;;;;;;5064850;28;20086;-68
2022/04/05 02:28:25;;;;;;;27.25;4.65;;;6.30;99.90;;;;;;5065448;28;20048;-69
2022/04/05 02:30:52;;;;;;;29.98;4.60;;;6.30;99.90;;;;;;5067047;28;20089;-69
2022/04/05 02:33:18;;;;;;;30.13;4.25;;;6.20;99.90;;;;;;5067533;28;20120;-69
2022/04/05 02:35:44;;;;;;;32.85;4.88;;;6.30;99.90;;;;;;5085755;28;20126;-69
2022/04/05 02:38:10;;;;;;;33.25;3.95;;;6.30;99.90;;;;;;5085225;28;20447;-68
2022/04/05 02:40:37;;;;;;;25.85;3.38;;;6.30;99.90;;;;;;5084794;28;20044;-69
2022/04/05 02:43:04;;;;;;;25.48;4.70;;;6.30;99.90;;;;;;5084510;28;20040;-69
2022/04/05 02:45:30;;;;;;;30.23;4.05;;;6.30;99.90;;;;;;5085649;28;20135;-68
2022/04/05 02:47:56;;;;;;;22.38;4.88;;;6.30;99.90;;;;;;5068341;28;20252;-69
2022/04/05 02:50:22;;;;;;;21.55;3.88;;;6.20;99.90;;;;;;5083041;28;20055;-69
2022/04/05 02:52:49;;;;;;;28.65;3.83;;;6.30;99.90;;;;;;5052118;28;20048;-68
2022/04/05 02:55:15;;;;;;;31.08;5.20;;;6.20;99.90;;;;;;5084409;28;20044;-69
2022/04/05 02:57:44;;;;;;;19.73;3.58;;;6.30;99.90;;;;;;5068545;28;20048;-68
2022/04/05 03:00:12;;;;;;;23.85;4.90;;;6.20;99.90;;;;;;5083046;28;20429;-69
2022/04/05 03:02:38;;;;;;;23.20;4.20;;;6.30;99.90;;;;;;5086481;28;20115;-69
2022/04/05 03:05:06;;;;;;;20.63;3.65;;;6.30;99.90;;;;;;5084944;28;20055;-69
2022/04/05 03:07:35;;;;;;;22.05;3.60;;;6.30;99.90;;;;;;5084680;28;20554;-69
2022/04/05 03:10:06;;;;;;;25.63;4.20;;;6.20;99.90;;;;;;5085487;28;20040;-68
2022/04/05 03:12:36;;;;;;;23.60;3.88;;;6.20;99.90;;;;;;5071810;28;20063;-69
2022/04/05 03:15:03;;;;;;;21.08;4.40;;;6.20;99.90;;;;;;5085288;28;20043;-69
2022/04/05 03:17:29;;;;;;;24.83;3.90;;;6.20;99.90;;;;;;5084253;28;20517;-69
2022/04/05 03:19:55;;;;;;;27.25;3.28;;;6.20;99.90;;;;;;5084996;28;20208;-69
2022/04/05 03:22:21;;;;;;;24.42;4.20;;;6.20;99.90;;;;;;5096209;28;20134;-68
2022/04/05 03:24:46;;;;;;;26.58;3.67;;;6.20;99.90;;;;;;5106386;28;20077;-69
2022/04/05 03:27:12;;;;;;;23.98;3.55;;;6.20;99.90;;;;;;5106493;28;20040;-68
2022/04/05 03:29:38;;;;;;;23.25;3.53;;;6.20;99.90;;;;;;5091632;28;20080;-68
2022/04/05 03:32:05;;;;;;;22.83;3.47;;;6.20;99.90;;;;;;5091702;28;20054;-69
2022/04/05 03:34:31;;;;;;;17.85;3.65;;;6.20;99.90;;;;;;5108801;28;20055;-69
2022/04/05 03:36:57;;;;;;;18.40;3.55;;;6.20;99.90;;;;;;5109357;28;20044;-68
2022/04/05 03:39:23;;;;;;;21.27;3.58;;;6.30;99.90;;;;;;5091690;28;20050;-68
2022/04/05 03:41:49;;;;;;;33.10;5.22;;;6.30;99.90;;;;;;5108182;28;20048;-69
2022/04/05 03:44:16;;;;;;;22.95;3.38;;;6.20;99.90;;;;;;5072813;28;20056;-68
2022/04/05 03:46:41;;;;;;;26.70;4.00;;;6.20;99.90;;;;;;5088047;28;20052;-68
2022/04/05 03:49:07;;;;;;;21.92;3.95;;;6.20;99.90;;;;;;5100502;28;20382;-68
2022/04/05 03:51:33;;;;;;;28.02;4.28;;;6.20;99.90;;;;;;5107942;28;20047;-68
2022/04/05 03:53:59;;;;;;;30.60;3.35;;;6.20;99.90;;;;;;5077242;28;20048;-68
2022/04/05 03:56:25;;;;;;;20.63;3.22;;;6.20;99.90;;;;;;5087587;28;20482;-68
2022/04/05 03:58:51;;;;;;;25.38;4.40;;;6.20;99.90;;;;;;5088843;28;20129;-68
2022/04/05 04:01:17;;;;;;;27.88;4.75;;;6.20;99.90;;;;;;5092977;28;20131;-69
2022/04/05 04:03:43;;;;;;;27.25;4.45;;;6.20;99.90;;;;;;5100050;28;20122;-68
2022/04/05 04:06:09;;;;;;;27.23;4.10;;;6.30;99.90;;;;;;5089200;28;20044;-69
2022/04/05 04:08:35;;;;;;;26.48;4.07;;;6.30;99.90;;;;;;5070437;28;20414;-69
2022/04/05 04:11:02;;;;;;;18.08;3.70;;;6.30;99.90;;;;;;5088631;28;20047;-68
2022/04/05 04:13:28;;;;;;;25.35;3.35;;;6.30;99.90;;;;;;5088143;28;20052;-68
2022/04/05 04:15:55;;;;;;;29.25;4.28;;;6.20;99.90;;;;;;5088208;28;20052;-68
2022/04/05 04:18:22;;;;;;;22.17;3.35;;;6.30;99.90;;;;;;5087218;28;20059;-68
2022/04/05 04:20:48;;;;;;;24.70;4.43;;;6.30;99.90;;;;;;5071088;28;20051;-68
2022/04/05 04:23:15;;;;;;;26.33;4.78;;;6.30;99.90;;;;;;5088803;28;20075;-69
2022/04/05 04:25:42;;;;;;;23.95;3.50;;;6.20;99.90;;;;;;5104303;28;20054;-69
2022/04/05 04:28:09;;;;;;;30.75;3.55;;;6.30;99.90;;;;;;5108618;28;20412;-68
2022/04/05 04:30:38;;;;;;;25.30;3.80;;;6.20;99.90;;;;;;5090304;28;20552;-68
2022/04/05 04:33:05;;;;;;;26.33;3.22;;;6.20;99.90;;;;;;5107697;28;20054;-69
2022/04/05 04:35:31;;;;;;;25.75;3.58;;;6.20;99.90;;;;;;5106623;28;20044;-69
2022/04/05 04:37:58;;;;;;;22.20;2.90;;;6.20;99.90;;;;;;5108138;28;20049;-69
2022/04/05 04:40:26;;;;;;;16.45;2.38;;;6.20;99.90;;;;;;5091065;28;20459;-68
2022/04/05 04:42:52;;;;;;;38.97;4.10;;;6.20;99.90;;;;;;5090072;28;20040;-69
2022/04/05 04:45:18;;;;;;;30.83;3.60;;;6.20;99.90;;;;;;5106923;28;20473;-69
2022/04/05 04:47:44;;;;;;;19.95;2.55;;;6.20;99.90;;;;;;5106745;28;20050;-68
2022/04/05 04:50:11;;;;;;;21.27;2.85;;;6.20;99.90;;;;;;5108403;28;20044;-69
2022/04/05 04:52:38;;;;;;;19.77;2.92;;;6.20;99.90;;;;;;5107150;28;20067;-68
2022/04/05 04:55:05;;;;;;;32.22;3.08;;;6.10;99.90;;;;;;5106178;28;20478;-69
2022/04/05 04:57:31;;;;;;;25.90;3.58;;;6.20;99.90;;;;;;5101174;28;20112;-69
2022/04/05 04:59:57;;;;;;;36.58;3.70;;;6.20;99.90;;;;;;5072572;28;20540;-69
2022/04/05 05:02:22;;;;;;;20.35;2.95;;;6.20;99.90;;;;;;5093802;28;20086;-69
2022/04/05 05:04:49;;;;;;;25.17;4.28;;;6.20;99.90;;;;;;5105775;28;20481;-69
2022/04/05 05:07:15;;;;;;;33.45;4.60;;;6.20;99.90;;;;;;5108269;28;20055;-69
2022/04/05 05:09:42;;;;;;;29.98;3.53;;;6.20;99.90;;;;;;5090953;28;20036;-69
2022/04/05 05:12:10;;;;;;;22.80;3.10;;;6.20;99.90;;;;;;5100941;27;20374;-69
2022/04/05 05:14:36;;;;;;;30.83;2.63;;;6.20;99.90;;;;;;5093359;28;20066;-68
2022/04/05 05:17:03;;;;;;;27.63;2.60;;;6.20;99.90;;;;;;5089955;28;20044;-69
2022/04/05 05:19:28;;;;;;;34.38;3.22;;;6.20;99.90;;;;;;5090748;28;20048;-69
2022/04/05 05:21:54;;;;;;;28.67;3.60;;;6.20;99.90;;;;;;5073008;28;20100;-68
2022/04/05 05:24:20;;;;;;;22.23;2.72;;;6.20;99.90;;;;;;5125118;27;20092;-69
2022/04/05 05:26:45;;;;;;;16.42;3.00;;;6.20;99.90;;;;;;5089278;28;20048;-69
2022/04/05 05:29:12;;;;;;;21.17;2.47;;;6.20;99.90;;;;;;5091923;28;20062;-68
2022/04/05 05:31:38;;;;;;;23.27;3.05;;;6.20;99.90;;;;;;5096479;27;20102;-68
2022/04/05 05:34:04;;;;;;;17.98;2.88;;;6.20;99.90;;;;;;5115405;27;20051;-68
2022/04/05 05:36:31;;;;;;;29.02;2.53;;;6.20;99.90;;;;;;5089976;28;20053;-68
2022/04/05 05:38:57;;;;;;;24.85;2.63;;;6.20;99.90;;;;;;5107761;28;20051;-68
2022/04/05 05:41:22;;;;;;;23.15;3.35;;;6.20;99.90;;;;;;5090820;28;20401;-69
2022/04/05 05:43:48;;;;;;;31.05;2.95;;;6.20;99.90;;;;;;5089169;28;20443;-68
2022/04/05 05:46:14;;;;;;;27.88;3.00;;;6.20;99.90;;;;;;5126919;27;20039;-69
2022/04/05 05:48:41;;;;;;;30.95;3.65;;;6.20;99.90;;;;;;5109089;27;20078;-69
2022/04/05 05:51:07;;;;;;;27.30;2.92;;;6.30;99.90;;;;;;5103945;28;20100;-69
2022/04/05 05:53:34;;;;;;;32.10;3.35;;;6.30;99.90;;;;;;5072106;28;20442;-69
2022/04/05 05:56:00;;;;;;;20.95;2.47;;;6.30;99.90;;;;;;5073319;28;20576;-69
2022/04/05 05:58:27;;;;;;;26.25;3.95;;;6.40;99.90;;;;;;5089935;28;20122;-69
2022/04/05 06:00:53;;;;;;;23.45;2.85;;;6.40;99.90;;;;;;5092459;27;20039;-69
2022/04/05 06:03:18;;;;;;;31.20;3.35;;;6.40;99.90;;;;;;5084004;28;20519;-69
2022/04/05 06:05:46;;;;;;;24.42;3.80;;;6.40;99.90;;;;;;5088588;28;20040;-69
2022/04/05 06:08:13;;;;;;;24.95;3.15;;;6.50;99.90;;;;;;5072852;28;20455;-69
2022/04/05 06:10:39;;;;;;;24.75;3.47;;;6.50;99.90;;;;;;5096082;27;20044;-69
2022/04/05 06:13:05;;;;;;;16.08;1.88;;;6.50;99.90;;;;;;5080564;28;20046;-69
2022/04/05 06:15:32;;;;;;;22.33;3.05;;;6.60;99.90;;;;;;5102995;27;20235;-68
2022/04/05 06:17:58;;;;;;;25.85;3.20;;;6.60;99.90;;;;;;5095472;28;20038;-69
2022/04/05 06:20:25;;;;;;;16.60;1.98;;;6.60;99.90;;;;;;5090228;27;20126;-69
2022/04/05 06:22:57;;;;;;;15.93;1.70;;;6.70;99.90;;;;;;5083908;27;20047;-69
2022/04/05 06:25:28;;;;;;;19.70;2.50;;;6.70;99.90;;;;;;5109500;27;20050;-69
2022/04/05 06:28:01;;;;;;;20.77;2.33;;;6.70;99.90;;;;;;5099337;28;20043;-69
2022/04/05 06:30:27;;;;;;;24.50;3.05;;;6.80;99.90;;;;;;5103451;27;20244;-69
2022/04/05 06:33:10;;;;;;;25.77;2.88;;;6.80;99.90;;;;;;5106657;27;20047;-69
2022/04/05 06:35:47;;;;;;;20.83;2.33;;;6.90;99.90;;;;;;5085902;27;20122;-69
2022/04/05 06:38:13;;;;;;;16.98;2.35;;;6.90;99.90;;;;;;5090248;27;20081;-69
2022/04/05 06:40:41;;;;;;;26.20;3.83;;;6.90;99.90;;;;;;5099338;28;20417;-70
2022/04/05 06:43:07;;;;;;;27.15;3.15;;;6.90;99.90;;;;;;5070565;28;20047;-69
2022/04/05 06:45:33;;;;;;;35.42;4.30;;;7.00;99.90;;;;;;5105755;27;20372;-69
2022/04/05 06:47:59;;;;;;;25.85;3.88;;;7.00;99.90;;;;;;5109251;27;20452;-69
2022/04/05 06:50:25;;;;;;;30.15;3.20;;;7.00;99.90;;;;;;5109764;27;20071;-69
2022/04/05 06:52:57;;;;;;;17.38;2.05;;;7.00;99.90;;;;;;5106302;27;20075;-69
2022/04/05 06:55:23;;;;;;;23.13;2.90;;;7.00;99.90;;;;;;5109401;28;20043;-69
2022/04/05 06:57:50;;;;;;;16.58;2.40;;;7.00;99.90;;;;;;5107644;27;20035;-69
2022/04/05 07:00:18;;;;;;;18.88;2.70;;;7.10;99.90;;;;;;5124061;27;20547;-68
2022/04/05 07:02:44;;;;;;;23.27;2.80;;;7.00;99.90;;;;;;5107832;27;20035;-69
2022/04/05 07:05:10;;;;;;;18.70;3.08;;;7.10;99.90;;;;;;5127226;27;20096;-69
2022/04/05 07:07:37;;;;;;;21.45;2.67;;;7.20;99.90;;;;;;5109304;28;20051;-69
2022/04/05 07:10:04;;;;;;;27.88;3.25;;;7.20;99.90;;;;;;5102868;28;20051;-69
2022/04/05 07:12:31;;;;;;;21.25;2.70;;;7.20;99.90;;;;;;5101838;27;20548;-69
2022/04/05 07:15:00;;;;;;;18.33;2.72;;;7.30;99.90;;;;;;5087968;28;20088;-69
2022/04/05 07:17:26;;;;;;;16.88;2.45;;;7.30;99.90;;;;;;5103512;28;20114;-69
2022/04/05 07:19:55;;;;;;;20.30;2.92;;;7.40;99.90;;;;;;5104008;28;20099;-68
2022/04/05 07:22:21;;;;;;;22.88;2.58;;;7.40;99.90;;;;;;5106096;28;20123;-69
2022/04/05 07:24:47;;;;;;;12.43;2.67;;;7.40;99.90;;;;;;5104875;28;20131;-68
2022/04/05 07:27:13;;;;;;;29.33;3.45;;;7.50;99.90;;;;;;5107241;28;20082;-69
2022/04/05 07:29:40;;;;;;;33.28;3.83;;;7.50;99.90;;;;;;5108832;28;20046;-69
2022/04/05 07:32:06;;;;;;;23.15;3.75;;;7.70;99.90;;;;;;5106732;28;20047;-69
2022/04/05 07:34:32;;;;;;;21.40;2.33;;;7.70;99.90;;;;;;5091688;28;20035;-69
2022/04/05 07:36:58;;;;;;;29.05;4.13;;;7.80;99.90;;;;;;5108218;28;20039;-69
2022/04/05 07:39:24;;;;;;;17.67;2.90;;;7.80;99.90;;;;;;5091228;28;20122;-69
2022/04/05 07:41:51;;;;;;;19.90;2.78;;;7.80;99.90;;;;;;5083982;28;20040;-69
2022/04/05 07:44:17;;;;;;;31.33;4.20;;;7.80;99.90;;;;;;5087928;28;20150;-69
2022/04/05 07:46:44;;;;;;;20.65;3.40;;;7.80;99.90;;;;;;5088323;28;20710;-69
2022/04/05 07:49:10;;;;;;;29.55;3.95;;;7.80;99.90;;;;;;5087031;28;20050;-69
2022/04/05 07:51:36;;;;;;;24.25;2.97;;;7.80;99.90;;;;;;5088698;28;20059;-70
2022/04/05 07:54:06;;;;;;;30.48;3.75;;;7.90;99.90;;;;;;5093400;28;20058;-69
2022/04/05 07:56:33;;;;;;;27.23;3.15;;;7.90;99.90;;;;;;5078501;28;20042;-70
2022/04/05 07:59:00;;;;;;;24.58;3.33;;;7.90;99.90;;;;;;5105142;28;20493;-69
2022/04/05 08:01:29;;;;;;;24.08;3.22;;;7.90;99.90;;;;;;5107325;28;20043;-70
2022/04/05 08:03:55;;;;;;;22.27;3.67;;;7.90;99.90;;;;;;5108089;28;20104;-69
2022/04/05 08:06:23;;;;;;;19.73;2.63;;;7.90;99.90;;;;;;5106916;28;20417;-69
2022/04/05 08:08:50;;;;;;;21.05;2.80;;;7.90;99.90;;;;;;5108486;28;20035;-69
2022/04/05 08:11:16;;;;;;;26.65;3.05;;;7.80;99.90;;;;;;5105971;28;20088;-69
2022/04/05 08:13:41;;;;;;;27.20;3.47;;;7.70;99.90;;;;;;5108247;28;20058;-70
2022/04/05 08:16:07;;;;;;;22.33;3.15;;;7.80;99.90;;;;;;5109854;27;20054;-69
2022/04/05 08:18:33;;;;;;;20.75;2.90;;;7.90;99.90;;;;;;5111842;27;20511;-70
2022/04/05 08:20:59;;;;;;;29.70;3.92;;;7.90;99.90;;;;;;5111644;27;20053;-69
2022/04/05 08:23:24;;;;;;;25.65;2.65;;;7.80;99.90;;;;;;5111645;27;20051;-70
2022/04/05 08:25:52;;;;;;;19.00;2.63;;;7.80;99.90;;;;;;5111017;27;20086;-70
2022/04/05 08:28:17;;;;;;;21.98;3.33;;;7.80;99.90;;;;;;5089722;27;20039;-70
2022/04/05 08:30:43;;;;;;;19.00;2.60;;;7.80;99.90;;;;;;5093907;27;20031;-70
2022/04/05 08:33:09;;;;;;;13.23;1.50;;;7.80;99.90;;;;;;5089920;27;20056;-69
2022/04/05 08:35:34;;;;;;;15.23;2.97;;;7.80;99.90;;;;;;5091498;28;20055;-70
2022/04/05 08:38:00;;;;;;;23.75;2.63;;;7.80;99.90;;;;;;5090293;28;20055;-70
2022/04/05 08:40:26;;;;;;;20.75;2.45;;;7.80;99.90;;;;;;5079500;27;20207;-69
2022/04/05 08:42:57;;;;;;;24.98;2.80;;;7.80;99.90;;;;;;5110190;27;20099;-69
2022/04/05 08:45:24;;;;;;;19.55;2.88;;;7.90;99.90;;;;;;5092627;27;20035;-70
2022/04/05 08:47:53;;;;;;;17.05;2.40;;;7.90;99.90;;;;;;5094130;27;20027;-69
2022/04/05 08:50:24;;;;;;;18.60;2.40;;;8.00;99.90;;;;;;5110006;27;20039;-69
2022/04/05 08:52:50;;;;;;;17.10;2.42;;;8.10;99.90;;;;;;5111070;27;20118;-69
2022/04/05 08:55:17;;;;;;;17.23;2.78;;;8.10;99.90;;;;;;5093053;27;20047;-69
2022/04/05 08:57:44;;;;;;;18.80;2.47;;;8.20;99.90;;;;;;5109679;27;20118;-69
2022/04/05 09:00:12;;;;;;;24.52;2.75;;;8.20;99.90;;;;;;5092531;27;20054;-69
2022/04/05 09:02:38;;;;;;;19.35;3.10;;;8.30;99.90;;;;;;5085580;27;20040;-69
2022/04/05 09:05:05;;;;;;;18.35;2.70;;;8.40;99.90;;;;;;5111640;27;20476;-69
2022/04/05 09:07:33;;;;;;;15.60;2.03;;;8.40;99.90;;;;;;5106725;27;20055;-70
2022/04/05 09:10:13;;;;;;;13.02;1.95;;;8.40;99.90;;;;;;5091988;27;20047;-70
2022/04/05 09:12:50;;;;;;;28.27;3.20;;;8.50;99.90;;;;;;5107920;28;20063;-69
2022/04/05 09:15:16;;;;;;;19.83;2.38;;;8.40;99.90;;;;;;5101417;27;20059;-70
2022/04/05 09:17:44;;;;;;;18.33;2.28;;;8.50;99.90;;;;;;5102786;27;20040;-69
2022/04/05 09:20:12;;;;;;;17.48;3.00;;;8.50;99.90;;;;;;5089122;28;20108;-70
2022/04/05 09:22:38;;;;;;;11.63;1.70;;;8.40;99.90;;;;;;5090587;28;20073;-70
2022/04/05 09:25:16;;;;;;;15.83;2.23;;;8.30;99.90;;;;;;5108677;27;20047;-70
2022/04/05 09:27:56;;;;;;;10.68;2.33;;;8.20;99.90;;;;;;5111062;27;20686;-70
2022/04/05 09:30:27;;;;;;;13.80;2.30;;;8.20;99.90;;;;;;5110336;27;20104;-69
2022/04/05 09:32:54;;;;;;;15.52;3.00;;;8.30;99.90;;;;;;5092580;27;20409;-69
2022/04/05 09:35:26;;;;;;;14.75;2.40;;;8.30;99.90;;;;;;5091241;27;20040;-70
2022/04/05 09:38:09;;;;;;;20.25;2.47;;;8.30;99.90;;;;;;5109247;27;20035;-69
2022/04/05 09:40:35;;;;;;;22.50;3.22;;;8.30;99.90;;;;;;5110461;27;20078;-69
2022/04/05 09:43:09;;;;;;;17.17;2.38;;;8.30;99.90;;;;;;5092180;27;20035;-70
2022/04/05 09:45:52;;;;;;;22.85;3.17;;;8.50;99.90;;;;;;5109174;27;20057;-69
2022/04/05 09:48:22;;;;;;;12.85;2.65;;;8.70;99.90;;;;;;5090557;28;20050;-70
2022/04/05 09:51:01;;;;;;;14.68;2.83;;;9.00;99.90;;;;;;5107272;28;20165;-70
2022/04/05 09:53:50;;;;;;;15.50;2.78;;;9.10;99.90;;;;;;5091420;27;20082;-69
2022/04/05 09:56:25;;;;;;;7.82;1.85;;;9.00;99.90;;;;;;5073119;27;20050;-70
2022/04/05 09:58:56;;;;;;;14.30;2.70;;;9.00;99.90;;;;;;5108341;27;20493;-70
2022/04/05 10:01:26;;;;;;;14.50;3.10;;;8.90;99.90;;;;;;5099887;27;20043;-70
2022/04/05 10:04:00;;;;;;;6.72;2.63;;;8.90;99.90;;;;;;5100816;27;20043;-70
2022/04/05 10:06:28;;;;;;;19.67;3.15;;;8.90;99.90;;;;;;5107621;27;20519;-69
2022/04/05 10:08:55;;;;;;;12.48;3.08;;;8.80;99.90;;;;;;5107558;27;20043;-70
2022/04/05 10:11:24;;;;;;;16.75;4.55;;;8.80;99.90;;;;;;5090719;27;20122;-70
2022/04/05 10:13:49;;;;;;;12.15;3.80;;;8.70;99.90;;;;;;5087989;28;20047;-69
2022/04/05 10:16:18;;;;;;;21.88;3.47;;;8.60;99.90;;;;;;5104496;28;20063;-69
2022/04/05 10:18:47;;;;;;;20.10;2.88;;;8.40;99.90;;;;;;5105472;28;20401;-69
2022/04/05 10:21:14;;;;;;;13.48;1.83;;;8.10;99.90;;;;;;5104945;28;20498;-69
2022/04/05 10:23:43;;;;;;;12.32;1.80;;;7.80;99.90;;;;;;5105355;28;20537;-69
2022/04/05 10:26:16;;;;;;;14.70;1.73;;;7.60;99.90;;;;;;5105500;28;20036;-70
2022/04/05 10:28:44;;;;;;;14.40;2.10;;;7.50;99.90;;;;;;5095530;28;20039;-69
2022/04/05 10:31:37;;;;;;;11.40;1.73;;;7.40;99.90;;;;;;5084297;28;20494;-69
2022/04/05 10:34:14;;;;;;;7.43;1.48;;;7.40;99.90;;;;;;5061285;28;20370;-69
2022/04/05 10:37:01;;;;;;;13.18;1.58;;;7.40;99.90;;;;;;5103718;28;20104;-69
2022/04/05 10:39:26;;;;;;;15.07;1.65;;;7.40;99.90;;;;;;5102432;28;20118;-69
2022/04/05 10:42:15;;;;;;;16.92;2.45;;;7.50;99.90;;;;;;5102963;28;20134;-69
2022/04/05 10:45:15;;;;;;;16.67;2.28;;;7.50;99.90;;;;;;5071930;28;20157;-68
2022/04/05 10:48:12;;;;;;;19.55;2.17;;;7.70;99.90;;;;;;5063434;28;20387;-69
2022/04/05 10:50:40;;;;;;;14.77;1.98;;;7.70;99.90;;;;;;5094790;28;20044;-69
2022/04/05 10:53:22;;;;;;;18.45;2.15;;;7.70;99.90;;;;;;5085366;28;20058;-69
2022/04/05 10:56:03;;;;;;;18.40;1.88;;;7.70;99.90;;;;;;5102008;28;20051;-69
2022/04/05 10:58:48;;;;;;;9.82;1.60;;;7.60;99.90;;;;;;5081029;28;20044;-69
2022/04/05 11:01:18;;;;;;;11.13;1.50;;;7.50;99.90;;;;;;5093156;28;20050;-69
2022/04/05 11:04:09;;;;;;;15.55;1.52;;;7.40;99.90;;;;;;5102292;28;20050;-69
2022/04/05 11:09:46;;;;;;;7.97;1.35;;;7.40;99.90;;;;;;5101609;28;20051;-69
2022/04/05 11:12:25;;;;;;;8.10;1.30;;;7.50;99.90;;;;;;5102941;28;20055;-69
2022/04/05 11:14:53;;;;;;;9.07;1.23;;;7.40;99.90;;;;;;5082918;28;20056;-69
2022/04/05 11:17:22;;;;;;;11.43;1.70;;;7.40;99.90;;;;;;5077998;28;20138;-69
2022/04/05 11:19:50;;;;;;;17.80;1.50;;;7.40;99.90;;;;;;5067771;28;20503;-69
2022/04/05 11:22:19;;;;;;;10.50;1.58;;;7.40;99.90;;;;;;5082221;28;20048;-69
2022/04/05 11:25:04;;;;;;;12.57;1.63;;;7.50;99.90;;;;;;5071384;28;20162;-68
2022/04/05 11:27:42;;;;;;;11.25;1.58;;;7.30;99.90;;;;;;5084048;28;20130;-69
2022/04/05 11:30:23;;;;;;;5.47;1.20;;;7.30;99.90;;;;;;5066537;28;20053;-69
2022/04/05 11:33:16;;;;;;;22.10;1.92;;;7.30;99.90;;;;;;5083041;28;20398;-69
2022/04/05 11:35:51;;;;;;;11.60;1.33;;;7.40;99.90;;;;;;5083417;28;20535;-68
2022/04/05 11:38:17;;;;;;;12.68;1.40;;;7.40;99.90;;;;;;5074794;28;20072;-68
2022/04/05 11:40:47;;;;;;;14.75;1.58;;;7.40;99.90;;;;;;5064943;28;20091;-69
2022/04/05 11:43:24;;;;;;;10.68;1.33;;;7.30;99.90;;;;;;5064553;28;20541;-69
2022/04/05 11:45:52;;;;;;;16.10;1.48;;;7.20;99.90;;;;;;5079271;28;20043;-69
2022/04/05 11:48:21;;;;;;;13.35;1.38;;;7.20;99.90;;;;;;5082591;28;20177;-69
2022/04/05 11:50:50;;;;;;;5.13;0.98;;;7.20;99.90;;;;;;5087970;28;20035;-69
2022/04/05 11:53:25;;;;;;;10.75;1.40;;;7.10;99.90;;;;;;5084967;28;20052;-68
2022/04/05 11:56:13;;;;;;;7.93;1.17;;;7.20;99.90;;;;;;5068887;28;20066;-69
2022/04/05 11:58:45;;;;;;;12.10;1.48;;;7.20;99.90;;;;;;5081298;28;20590;-69
2022/04/05 12:01:12;;;;;;;17.83;1.25;;;7.20;99.90;;;;;;5067978;28;20515;-69
2022/04/05 12:03:52;;;;;;;13.88;1.88;;;7.20;99.90;;;;;;5060553;28;20064;-69
2022/04/05 12:06:21;;;;;;;;;;;7.20;99.90;;;;;;5068690;28;20057;-69
2022/04/05 12:08:51;;;;;;;7.68;1.10;;;7.10;99.90;;;;;;5067188;28;20071;-69
2022/04/05 12:11:21;;;;;;;10.55;1.88;;;7.10;99.90;;;;;;5069942;28;20082;-69
2022/04/05 12:13:58;;;;;;;5.28;1.55;;;7.10;99.90;;;;;;5072788;28;20106;-69
2022/04/05 12:16:26;;;;;;;6.63;0.98;;;7.20;99.90;;;;;;5085798;28;20055;-69
2022/04/05 12:18:53;;;;;;;12.93;1.83;;;7.40;99.90;;;;;;5087217;28;20055;-69
2022/04/05 12:21:21;;;;;;;11.00;1.27;;;7.40;99.90;;;;;;5106492;28;20055;-69
2022/04/05 12:23:48;;;;;;;7.30;1.13;;;7.40;99.90;;;;;;5108103;28;20424;-69
2022/04/05 12:26:16;;;;;;;3.22;0.63;;;7.50;99.90;;;;;;5107727;28;20160;-69
2022/04/05 12:28:46;;;;;;;11.73;1.20;;;7.50;99.90;;;;;;5089158;28;20031;-69
2022/04/05 12:31:15;;;;;;;7.20;1.35;;;7.60;99.90;;;;;;5070686;28;20054;-69
2022/04/05 12:33:56;;;;;;;3.25;0.88;;;7.80;99.90;;;;;;5108553;28;20107;-69
2022/04/05 12:36:23;;;;;;;3.35;0.98;;;7.70;99.90;;;;;;5107276;28;20035;-69
2022/04/05 12:38:49;;;;;;;3.17;1.10;;;7.60;99.90;;;;;;5100259;28;20228;-68
2022/04/05 12:41:19;;;;;;;3.50;0.75;;;7.60;99.90;;;;;;5088542;28;20485;-69
2022/04/05 12:44:02;;;;;;;8.45;1.02;;;7.60;99.90;;;;;;5092372;28;20040;-69
2022/04/05 12:46:37;;;;;;;6.13;1.33;;;7.60;99.90;;;;;;5097593;28;20401;-69
2022/04/05 12:49:17;;;;;;;6.43;1.92;;;7.60;99.90;;;;;;5086734;28;20087;-69
2022/04/05 12:51:43;;;;;;;5.70;2.00;;;7.80;99.90;;;;;;5104939;28;20078;-69
2022/04/05 12:54:29;;;;;;;6.40;1.88;;;7.90;99.90;;;;;;5091090;28;20043;-69
2022/04/05 12:57:12;;;;;;;7.00;2.38;;;8.00;99.90;;;;;;5088290;28;20059;-69
2022/04/05 12:59:38;;;;;;;6.20;2.80;;;8.00;99.90;;;;;;5087875;28;20052;-69